sensor_id;sensor_type;location;lat;lon;timestamp;temperature;humidity
55211;DHT22;41082;52.822;6.666;2023-03-14T00:02:16;10.50;99.90
55211;DHT22;41082;52.822;6.666;2023-03-14T00:04:42;10.60;99.90
55211;DHT22;41082;52.822;6.666;2023-03-14T00:07:09;10.60;99.90
55211;DHT22;41082;52.822;6.666;2023-03-14T00:09:35;10.60;99.90
55211;DHT22;41082;52.822;6.666;2023-03-14T00:12:01;10.60;99.90
55211;DHT22;41082;52.822;6.666;2023-03-14T00:14:29;10.70;99.90
55211;DHT22;41082;52.822;6.666;2023-03-14T00:16:54;10.70;99.90
55211;DHT22;41082;52.822;6.666;2023-03-14T00:19:20;10.70;99.90
55211;DHT22;41082;52.822;6.666;2023-03-14T00:21:46;10.60;99.90
55211;DHT22;41082;52.822;6.666;2023-03-14T00:24:12;10.60;99.90
55211;DHT22;41082;52.822;6.666;2023-03-14T00:26:37;10.60;99.90
55211;DHT22;41082;52.822;6.666;2023-03-14T00:29:03;10.60;99.90
55211;DHT22;41082;52.822;6.666;2023-03-14T00:31:28;10.60;99.90
55211;DHT22;41082;52.822;6.666;2023-03-14T00:33:54;10.60;99.90
55211;DHT22;41082;52.822;6.666;2023-03-14T00:36:20;10.70;99.90
55211;DHT22;41082;52.822;6.666;2023-03-14T00:38:48;10.70;99.90
55211;DHT22;41082;52.822;6.666;2023-03-14T00:41:17;10.70;99.90
55211;DHT22;41082;52.822;6.666;2023-03-14T00:43:43;10.80;99.90
55211;DHT22;41082;52.822;6.666;2023-03-14T00:46:09;10.80;99.90
55211;DHT22;41082;52.822;6.666;2023-03-14T00:48:35;10.80;99.90
55211;DHT22;41082;52.822;6.666;2023-03-14T00:51:02;10.80;99.90
55211;DHT22;41082;52.822;6.666;2023-03-14T00:53:28;10.90;99.90
55211;DHT22;41082;52.822;6.666;2023-03-14T00:55:54;10.90;99.90
55211;DHT22;41082;52.822;6.666;2023-03-14T00:58:19;11.00;99.90
55211;DHT22;41082;52.822;6.666;2023-03-14T01:00:46;11.00;99.90
55211;DHT22;41082;52.822;6.666;2023-03-14T01:03:13;11.00;99.90
55211;DHT22;41082;52.822;6.666;2023-03-14T01:05:39;11.00;99.90
55211;DHT22;41082;52.822;6.666;2023-03-14T01:08:06;10.90;99.90
55211;DHT22;41082;52.822;6.666;2023-03-14T01:10:33;10.90;99.90
55211;DHT22;41082;52.822;6.666;2023-03-14T01:12:58;11.00;99.90
55211;DHT22;41082;52.822;6.666;2023-03-14T01:15:24;10.90;99.90
55211;DHT22;41082;52.822;6.666;2023-03-14T01:17:49;10.80;99.90
55211;DHT22;41082;52.822;6.666;2023-03-14T01:20:16;10.80;99.90
55211;DHT22;41082;52.822;6.666;2023-03-14T01:22:43;10.80;99.90
55211;DHT22;41082;52.822;6.666;2023-03-14T01:25:11;10.90;99.90
55211;DHT22;41082;52.822;6.666;2023-03-14T01:27:37;10.90;99.90
55211;DHT22;41082;52.822;6.666;2023-03-14T01:30:04;10.80;99.90
55211;DHT22;41082;52.822;6.666;2023-03-14T01:32:30;10.80;99.90
55211;DHT22;41082;52.822;6.666;2023-03-14T01:34:56;10.70;99.90
55211;DHT22;41082;52.822;6.666;2023-03-14T01:37:21;10.70;99.90
55211;DHT22;41082;52.822;6.666;2023-03-14T01:39:47;10.80;99.90
55211;DHT22;41082;52.822;6.666;2023-03-14T01:42:14;10.70;99.90
55211;DHT22;41082;52.822;6.666;2023-03-14T01:44:57;10.80;99.90
55211;DHT22;41082;52.822;6.666;2023-03-14T01:47:23;10.80;99.90
55211;DHT22;41082;52.822;6.666;2023-03-14T01:50:01;10.70;99.90
55211;DHT22;41082;52.822;6.666;2023-03-14T01:52:36;10.70;99.90
55211;DHT22;41082;52.822;6.666;2023-03-14T01:55:04;10.60;99.90
55211;DHT22;41082;52.822;6.666;2023-03-14T01:57:39;10.60;99.90
55211;DHT22;41082;52.822;6.666;2023-03-14T02:00:09;10.50;99.90
55211;DHT22;41082;52.822;6.666;2023-03-14T02:02:48;10.50;99.90
55211;DHT22;41082;52.822;6.666;2023-03-14T02:05:23;10.40;99.90
55211;DHT22;41082;52.822;6.666;2023-03-14T02:07:52;10.40;99.90
55211;DHT22;41082;52.822;6.666;2023-03-14T02:10:21;10.40;99.90
55211;DHT22;41082;52.822;6.666;2023-03-14T02:12:48;10.30;99.90
55211;DHT22;41082;52.822;6.666;2023-03-14T02:15:14;10.40;99.90
55211;DHT22;41082;52.822;6.666;2023-03-14T02:17:42;10.40;99.90
55211;DHT22;41082;52.822;6.666;2023-03-14T02:20:36;10.40;99.90
55211;DHT22;41082;52.822;6.666;2023-03-14T02:23:03;10.50;99.90
55211;DHT22;41082;52.822;6.666;2023-03-14T02:25:47;10.50;99.90
55211;DHT22;41082;52.822;6.666;2023-03-14T02:28:14;10.60;99.90
55211;DHT22;41082;52.822;6.666;2023-03-14T02:30:40;10.60;99.90
55211;DHT22;41082;52.822;6.666;2023-03-14T02:33:18;10.60;99.90
55211;DHT22;41082;52.822;6.666;2023-03-14T02:40:41;10.60;99.90
55211;DHT22;41082;52.822;6.666;2023-03-14T02:43:07;10.50;99.90
55211;DHT22;41082;52.822;6.666;2023-03-14T02:45:41;10.50;99.90
55211;DHT22;41082;52.822;6.666;2023-03-14T02:48:11;10.50;99.90
55211;DHT22;41082;52.822;6.666;2023-03-14T02:50:38;10.50;99.90
55211;DHT22;41082;52.822;6.666;2023-03-14T02:53:05;10.50;99.90
55211;DHT22;41082;52.822;6.666;2023-03-14T02:55:30;10.50;99.90
55211;DHT22;41082;52.822;6.666;2023-03-14T02:57:56;10.50;99.90
55211;DHT22;41082;52.822;6.666;2023-03-14T03:00:22;10.50;99.90
55211;DHT22;41082;52.822;6.666;2023-03-14T03:02:47;10.40;99.90
55211;DHT22;41082;52.822;6.666;2023-03-14T03:05:13;10.40;99.90
55211;DHT22;41082;52.822;6.666;2023-03-14T03:07:38;10.40;99.90
55211;DHT22;41082;52.822;6.666;2023-03-14T03:10:04;10.30;99.90
55211;DHT22;41082;52.822;6.666;2023-03-14T03:12:30;10.30;99.90
55211;DHT22;41082;52.822;6.666;2023-03-14T03:14:56;10.20;99.90
55211;DHT22;41082;52.822;6.666;2023-03-14T03:17:21;10.20;99.90
55211;DHT22;41082;52.822;6.666;2023-03-14T03:19:47;10.10;99.90
55211;DHT22;41082;52.822;6.666;2023-03-14T03:22:12;10.10;99.90
55211;DHT22;41082;52.822;6.666;2023-03-14T03:24:38;9.90;99.90
55211;DHT22;41082;52.822;6.666;2023-03-14T03:27:03;10.00;99.90
55211;DHT22;41082;52.822;6.666;2023-03-14T03:29:29;10.00;99.90
55211;DHT22;41082;52.822;6.666;2023-03-14T03:31:55;10.00;99.90
55211;DHT22;41082;52.822;6.666;2023-03-14T03:34:21;9.90;99.90
55211;DHT22;41082;52.822;6.666;2023-03-14T03:36:47;9.90;99.90
55211;DHT22;41082;52.822;6.666;2023-03-14T03:39:12;9.90;99.90
55211;DHT22;41082;52.822;6.666;2023-03-14T03:41:38;9.90;99.90
55211;DHT22;41082;52.822;6.666;2023-03-14T03:44:03;9.90;99.90
55211;DHT22;41082;52.822;6.666;2023-03-14T03:46:31;9.80;99.90
55211;DHT22;41082;52.822;6.666;2023-03-14T03:48:58;9.80;99.90
55211;DHT22;41082;52.822;6.666;2023-03-14T03:51:24;9.80;99.90
55211;DHT22;41082;52.822;6.666;2023-03-14T03:53:50;9.80;99.90
55211;DHT22;41082;52.822;6.666;2023-03-14T03:56:15;9.80;99.90
55211;DHT22;41082;52.822;6.666;2023-03-14T03:58:41;9.80;99.90
55211;DHT22;41082;52.822;6.666;2023-03-14T04:01:08;9.80;99.90
55211;DHT22;41082;52.822;6.666;2023-03-14T04:03:34;9.70;99.90
55211;DHT22;41082;52.822;6.666;2023-03-14T04:06:05;9.70;99.90
55211;DHT22;41082;52.822;6.666;2023-03-14T04:08:31;9.70;99.90
55211;DHT22;41082;52.822;6.666;2023-03-14T04:10:58;9.70;99.90
55211;DHT22;41082;52.822;6.666;2023-03-14T04:13:25;9.70;99.90
55211;DHT22;41082;52.822;6.666;2023-03-14T04:15:51;9.70;99.90
55211;DHT22;41082;52.822;6.666;2023-03-14T04:18:17;9.70;99.90
55211;DHT22;41082;52.822;6.666;2023-03-14T04:20:43;9.70;99.90
55211;DHT22;41082;52.822;6.666;2023-03-14T04:23:08;9.70;99.90
55211;DHT22;41082;52.822;6.666;2023-03-14T04:25:34;9.70;99.90
55211;DHT22;41082;52.822;6.666;2023-03-14T04:27:59;9.60;99.90
55211;DHT22;41082;52.822;6.666;2023-03-14T04:30:25;9.60;99.90
55211;DHT22;41082;52.822;6.666;2023-03-14T04:32:51;9.70;99.90
55211;DHT22;41082;52.822;6.666;2023-03-14T04:35:16;9.70;99.90
55211;DHT22;41082;52.822;6.666;2023-03-14T04:37:42;9.70;99.90
55211;DHT22;41082;52.822;6.666;2023-03-14T04:40:09;9.60;99.90
55211;DHT22;41082;52.822;6.666;2023-03-14T04:42:35;9.60;99.90
55211;DHT22;41082;52.822;6.666;2023-03-14T04:45:01;9.60;99.90
55211;DHT22;41082;52.822;6.666;2023-03-14T04:47:27;9.50;99.90
55211;DHT22;41082;52.822;6.666;2023-03-14T04:49:53;9.60;99.90
55211;DHT22;41082;52.822;6.666;2023-03-14T04:52:18;9.60;99.90
55211;DHT22;41082;52.822;6.666;2023-03-14T04:54:44;9.50;99.90
55211;DHT22;41082;52.822;6.666;2023-03-14T04:57:10;9.50;99.90
55211;DHT22;41082;52.822;6.666;2023-03-14T04:59:35;9.50;99.90
55211;DHT22;41082;52.822;6.666;2023-03-14T05:02:01;9.50;99.90
55211;DHT22;41082;52.822;6.666;2023-03-14T05:04:26;9.50;99.90
55211;DHT22;41082;52.822;6.666;2023-03-14T05:06:52;9.50;99.90
55211;DHT22;41082;52.822;6.666;2023-03-14T05:09:17;9.40;99.90
55211;DHT22;41082;52.822;6.666;2023-03-14T05:11:43;9.40;99.90
55211;DHT22;41082;52.822;6.666;2023-03-14T05:14:08;9.40;99.90
55211;DHT22;41082;52.822;6.666;2023-03-14T05:16:34;9.40;99.90
55211;DHT22;41082;52.822;6.666;2023-03-14T05:19:00;9.40;99.90
55211;DHT22;41082;52.822;6.666;2023-03-14T05:21:27;9.50;99.90
55211;DHT22;41082;52.822;6.666;2023-03-14T05:23:52;9.40;99.90
55211;DHT22;41082;52.822;6.666;2023-03-14T05:26:18;9.40;99.90
55211;DHT22;41082;52.822;6.666;2023-03-14T05:28:44;9.40;99.90
55211;DHT22;41082;52.822;6.666;2023-03-14T05:31:09;9.50;99.90
55211;DHT22;41082;52.822;6.666;2023-03-14T05:33:35;9.40;99.90
55211;DHT22;41082;52.822;6.666;2023-03-14T05:36:01;9.50;99.90
55211;DHT22;41082;52.822;6.666;2023-03-14T05:38:26;9.60;99.90
55211;DHT22;41082;52.822;6.666;2023-03-14T05:40:52;9.50;99.90
55211;DHT22;41082;52.822;6.666;2023-03-14T05:43:17;9.60;99.90
55211;DHT22;41082;52.822;6.666;2023-03-14T05:45:43;9.60;99.90
55211;DHT22;41082;52.822;6.666;2023-03-14T05:48:09;9.50;99.90
55211;DHT22;41082;52.822;6.666;2023-03-14T05:50:34;9.50;99.90
55211;DHT22;41082;52.822;6.666;2023-03-14T05:53:00;9.50;99.90
55211;DHT22;41082;52.822;6.666;2023-03-14T05:55:26;9.50;99.90
55211;DHT22;41082;52.822;6.666;2023-03-14T05:57:53;9.40;99.90
55211;DHT22;41082;52.822;6.666;2023-03-14T06:00:19;9.40;99.90
55211;DHT22;41082;52.822;6.666;2023-03-14T06:02:45;9.50;99.90
55211;DHT22;41082;52.822;6.666;2023-03-14T06:05:10;9.40;99.90
55211;DHT22;41082;52.822;6.666;2023-03-14T06:07:36;9.40;99.90
55211;DHT22;41082;52.822;6.666;2023-03-14T06:10:02;9.40;99.90
55211;DHT22;41082;52.822;6.666;2023-03-14T06:12:27;9.40;99.90
55211;DHT22;41082;52.822;6.666;2023-03-14T06:14:53;9.40;99.90
55211;DHT22;41082;52.822;6.666;2023-03-14T06:17:19;9.40;99.90
55211;DHT22;41082;52.822;6.666;2023-03-14T06:19:44;9.50;99.90
55211;DHT22;41082;52.822;6.666;2023-03-14T06:22:10;9.50;99.90
55211;DHT22;41082;52.822;6.666;2023-03-14T06:24:36;9.50;99.90
55211;DHT22;41082;52.822;6.666;2023-03-14T06:27:01;9.60;99.90
55211;DHT22;41082;52.822;6.666;2023-03-14T06:29:29;9.50;99.90
55211;DHT22;41082;52.822;6.666;2023-03-14T06:31:55;9.50;99.90
55211;DHT22;41082;52.822;6.666;2023-03-14T06:34:20;9.60;99.90
55211;DHT22;41082;52.822;6.666;2023-03-14T06:36:46;9.60;99.90
55211;DHT22;41082;52.822;6.666;2023-03-14T06:39:12;9.60;99.90
55211;DHT22;41082;52.822;6.666;2023-03-14T06:41:37;9.60;99.90
55211;DHT22;41082;52.822;6.666;2023-03-14T06:44:03;9.60;99.90
55211;DHT22;41082;52.822;6.666;2023-03-14T06:46:28;9.60;99.90
55211;DHT22;41082;52.822;6.666;2023-03-14T06:48:54;9.60;99.90
55211;DHT22;41082;52.822;6.666;2023-03-14T06:51:20;9.60;99.90
55211;DHT22;41082;52.822;6.666;2023-03-14T06:53:45;9.60;99.90
55211;DHT22;41082;52.822;6.666;2023-03-14T06:56:11;9.70;99.90
55211;DHT22;41082;52.822;6.666;2023-03-14T06:58:36;9.70;99.90
55211;DHT22;41082;52.822;6.666;2023-03-14T07:01:02;9.60;99.90
55211;DHT22;41082;52.822;6.666;2023-03-14T07:03:28;9.70;99.90
55211;DHT22;41082;52.822;6.666;2023-03-14T07:05:54;9.60;99.90
55211;DHT22;41082;52.822;6.666;2023-03-14T07:08:20;9.60;99.90
55211;DHT22;41082;52.822;6.666;2023-03-14T07:10:45;9.60;99.90
55211;DHT22;41082;52.822;6.666;2023-03-14T07:13:11;9.60;99.90
55211;DHT22;41082;52.822;6.666;2023-03-14T07:15:36;9.60;99.90
55211;DHT22;41082;52.822;6.666;2023-03-14T07:18:02;9.70;99.90
55211;DHT22;41082;52.822;6.666;2023-03-14T07:20:28;9.60;99.90
55211;DHT22;41082;52.822;6.666;2023-03-14T07:22:55;9.70;99.90
55211;DHT22;41082;52.822;6.666;2023-03-14T07:25:20;9.70;99.90
55211;DHT22;41082;52.822;6.666;2023-03-14T07:27:46;9.60;99.90
55211;DHT22;41082;52.822;6.666;2023-03-14T07:30:13;9.60;99.90
55211;DHT22;41082;52.822;6.666;2023-03-14T07:32:39;9.50;99.90
55211;DHT22;41082;52.822;6.666;2023-03-14T07:35:05;9.40;99.90
55211;DHT22;41082;52.822;6.666;2023-03-14T07:37:31;9.30;99.90
55211;DHT22;41082;52.822;6.666;2023-03-14T07:39:57;9.40;99.90
55211;DHT22;41082;52.822;6.666;2023-03-14T07:42:22;9.20;99.90
55211;DHT22;41082;52.822;6.666;2023-03-14T07:44:48;8.90;99.90
55211;DHT22;41082;52.822;6.666;2023-03-14T07:47:13;8.70;99.90
55211;DHT22;41082;52.822;6.666;2023-03-14T07:49:39;8.50;99.90
55211;DHT22;41082;52.822;6.666;2023-03-14T07:52:04;8.30;99.90
55211;DHT22;41082;52.822;6.666;2023-03-14T07:54:30;8.20;99.90
55211;DHT22;41082;52.822;6.666;2023-03-14T07:56:56;8.00;99.90
55211;DHT22;41082;52.822;6.666;2023-03-14T07:59:24;7.80;99.90
55211;DHT22;41082;52.822;6.666;2023-03-14T08:01:49;7.70;99.90
55211;DHT22;41082;52.822;6.666;2023-03-14T08:04:15;7.50;99.90
55211;DHT22;41082;52.822;6.666;2023-03-14T08:06:40;7.40;99.90
55211;DHT22;41082;52.822;6.666;2023-03-14T08:09:06;7.20;99.90
55211;DHT22;41082;52.822;6.666;2023-03-14T08:11:31;7.20;99.90
55211;DHT22;41082;52.822;6.666;2023-03-14T08:13:57;7.00;99.90
55211;DHT22;41082;52.822;6.666;2023-03-14T08:16:23;7.00;99.90
55211;DHT22;41082;52.822;6.666;2023-03-14T08:18:49;6.90;99.90
55211;DHT22;41082;52.822;6.666;2023-03-14T08:21:14;6.80;99.90
55211;DHT22;41082;52.822;6.666;2023-03-14T08:23:40;6.80;99.90
55211;DHT22;41082;52.822;6.666;2023-03-14T08:26:06;6.80;99.90
55211;DHT22;41082;52.822;6.666;2023-03-14T08:28:32;6.80;99.90
55211;DHT22;41082;52.822;6.666;2023-03-14T08:30:59;6.80;99.90
55211;DHT22;41082;52.822;6.666;2023-03-14T08:33:27;6.80;99.90
55211;DHT22;41082;52.822;6.666;2023-03-14T08:35:57;6.80;99.90
55211;DHT22;41082;52.822;6.666;2023-03-14T08:38:23;6.70;99.90
55211;DHT22;41082;52.822;6.666;2023-03-14T08:40:55;6.70;99.90
55211;DHT22;41082;52.822;6.666;2023-03-14T08:43:21;6.70;99.90
55211;DHT22;41082;52.822;6.666;2023-03-14T08:45:47;6.70;99.90
55211;DHT22;41082;52.822;6.666;2023-03-14T08:48:12;6.60;99.90
55211;DHT22;41082;52.822;6.666;2023-03-14T08:50:38;6.60;99.90
55211;DHT22;41082;52.822;6.666;2023-03-14T08:53:03;6.60;99.90
55211;DHT22;41082;52.822;6.666;2023-03-14T08:55:29;6.60;99.90
55211;DHT22;41082;52.822;6.666;2023-03-14T08:57:55;6.50;99.90
55211;DHT22;41082;52.822;6.666;2023-03-14T09:00:21;6.60;99.90
55211;DHT22;41082;52.822;6.666;2023-03-14T09:02:46;6.60;99.90
55211;DHT22;41082;52.822;6.666;2023-03-14T09:05:12;6.60;99.90
55211;DHT22;41082;52.822;6.666;2023-03-14T09:07:38;6.70;99.90
55211;DHT22;41082;52.822;6.666;2023-03-14T09:10:05;6.70;99.90
55211;DHT22;41082;52.822;6.666;2023-03-14T09:12:31;6.80;99.90
55211;DHT22;41082;52.822;6.666;2023-03-14T09:14:57;6.70;99.90
55211;DHT22;41082;52.822;6.666;2023-03-14T09:17:23;6.80;99.90
55211;DHT22;41082;52.822;6.666;2023-03-14T09:19:48;6.80;99.90
55211;DHT22;41082;52.822;6.666;2023-03-14T09:22:14;6.80;99.90
55211;DHT22;41082;52.822;6.666;2023-03-14T09:24:40;6.80;99.90
55211;DHT22;41082;52.822;6.666;2023-03-14T09:27:06;6.90;99.90
55211;DHT22;41082;52.822;6.666;2023-03-14T09:29:32;6.90;99.90
55211;DHT22;41082;52.822;6.666;2023-03-14T09:31:58;7.00;99.90
55211;DHT22;41082;52.822;6.666;2023-03-14T09:34:25;7.00;99.90
55211;DHT22;41082;52.822;6.666;2023-03-14T09:36:50;7.00;99.90
55211;DHT22;41082;52.822;6.666;2023-03-14T09:39:16;7.00;99.90
55211;DHT22;41082;52.822;6.666;2023-03-14T09:41:48;7.10;99.90
55211;DHT22;41082;52.822;6.666;2023-03-14T09:44:32;7.20;99.90
55211;DHT22;41082;52.822;6.666;2023-03-14T09:47:03;7.30;99.90
55211;DHT22;41082;52.822;6.666;2023-03-14T09:49:32;7.40;99.90
55211;DHT22;41082;52.822;6.666;2023-03-14T09:52:01;7.40;99.90
55211;DHT22;41082;52.822;6.666;2023-03-14T09:54:49;7.30;99.90
55211;DHT22;41082;52.822;6.666;2023-03-14T09:57:18;7.30;99.90
55211;DHT22;41082;52.822;6.666;2023-03-14T09:59:45;7.40;99.90
55211;DHT22;41082;52.822;6.666;2023-03-14T10:04:40;7.50;99.90
55211;DHT22;41082;52.822;6.666;2023-03-14T10:07:14;7.60;99.90
55211;DHT22;41082;52.822;6.666;2023-03-14T10:09:43;7.60;99.90
55211;DHT22;41082;52.822;6.666;2023-03-14T10:12:09;7.70;99.90
55211;DHT22;41082;52.822;6.666;2023-03-14T10:14:37;7.70;99.90
55211;DHT22;41082;52.822;6.666;2023-03-14T10:17:12;7.80;99.90
55211;DHT22;41082;52.822;6.666;2023-03-14T10:19:55;7.80;99.90
55211;DHT22;41082;52.822;6.666;2023-03-14T10:22:22;7.80;99.90
55211;DHT22;41082;52.822;6.666;2023-03-14T10:24:55;7.80;99.90
55211;DHT22;41082;52.822;6.666;2023-03-14T10:27:29;7.80;99.90
55211;DHT22;41082;52.822;6.666;2023-03-14T10:30:00;7.70;99.90
55211;DHT22;41082;52.822;6.666;2023-03-14T10:32:32;7.70;99.90
55211;DHT22;41082;52.822;6.666;2023-03-14T10:37:30;7.80;99.90
55211;DHT22;41082;52.822;6.666;2023-03-14T10:39:59;7.80;99.90
55211;DHT22;41082;52.822;6.666;2023-03-14T10:42:32;7.60;99.90
55211;DHT22;41082;52.822;6.666;2023-03-14T10:45:05;7.50;99.90
55211;DHT22;41082;52.822;6.666;2023-03-14T10:47:34;7.50;99.90
55211;DHT22;41082;52.822;6.666;2023-03-14T10:50:26;7.50;99.90
55211;DHT22;41082;52.822;6.666;2023-03-14T10:52:54;7.50;99.90
55211;DHT22;41082;52.822;6.666;2023-03-14T10:55:20;7.50;99.90
55211;DHT22;41082;52.822;6.666;2023-03-14T10:57:46;7.50;99.90
55211;DHT22;41082;52.822;6.666;2023-03-14T11:00:17;7.50;99.90
55211;DHT22;41082;52.822;6.666;2023-03-14T11:03:08;7.60;99.90
55211;DHT22;41082;52.822;6.666;2023-03-14T11:05:56;7.60;99.90
55211;DHT22;41082;52.822;6.666;2023-03-14T11:08:27;7.60;99.90
55211;DHT22;41082;52.822;6.666;2023-03-14T11:16:29;7.70;99.90
55211;DHT22;41082;52.822;6.666;2023-03-14T11:27:41;7.70;99.90
55211;DHT22;41082;52.822;6.666;2023-03-14T11:30:37;7.80;99.90
55211;DHT22;41082;52.822;6.666;2023-03-14T11:33:14;7.90;99.90
55211;DHT22;41082;52.822;6.666;2023-03-14T11:35:49;7.90;99.90
55211;DHT22;41082;52.822;6.666;2023-03-14T11:41:10;7.80;99.90
55211;DHT22;41082;52.822;6.666;2023-03-14T11:43:41;7.80;99.90
55211;DHT22;41082;52.822;6.666;2023-03-14T11:47:24;7.70;99.90
55211;DHT22;41082;52.822;6.666;2023-03-14T11:49:31;7.80;99.90
55211;DHT22;41082;52.822;6.666;2023-03-14T11:52:03;7.70;99.90
55211;DHT22;41082;52.822;6.666;2023-03-14T11:54:53;7.80;99.90
55211;DHT22;41082;52.822;6.666;2023-03-14T11:57:21;8.00;99.90
55211;DHT22;41082;52.822;6.666;2023-03-14T12:10:17;7.90;99.90
55211;DHT22;41082;52.822;6.666;2023-03-14T12:12:43;7.80;99.50
55211;DHT22;41082;52.822;6.666;2023-03-14T12:15:20;7.80;99.90
55211;DHT22;41082;52.822;6.666;2023-03-14T12:17:46;7.80;99.90
55211;DHT22;41082;52.822;6.666;2023-03-14T12:20:19;8.00;99.90
55211;DHT22;41082;52.822;6.666;2023-03-14T12:23:02;8.00;99.80
55211;DHT22;41082;52.822;6.666;2023-03-14T12:25:31;8.00;99.20
55211;DHT22;41082;52.822;6.666;2023-03-14T12:30:38;8.10;97.50
55211;DHT22;41082;52.822;6.666;2023-03-14T12:35:53;7.90;96.40
55211;DHT22;41082;52.822;6.666;2023-03-14T12:41:44;7.60;95.80
55211;DHT22;41082;52.822;6.666;2023-03-14T12:47:00;7.80;95.20
55211;DHT22;41082;52.822;6.666;2023-03-14T12:49:33;7.90;94.90
55211;DHT22;41082;52.822;6.666;2023-03-14T12:52:14;7.90;95.70
55211;DHT22;41082;52.822;6.666;2023-03-14T12:59:51;8.20;95.40
55211;DHT22;41082;52.822;6.666;2023-03-14T13:02:26;8.20;95.60
55211;DHT22;41082;52.822;6.666;2023-03-14T13:05:17;8.10;94.60
55211;DHT22;41082;52.822;6.666;2023-03-14T13:10:22;8.20;96.40
55211;DHT22;41082;52.822;6.666;2023-03-14T13:15:34;8.10;94.70
55211;DHT22;41082;52.822;6.666;2023-03-14T13:18:12;8.30;95.40
55211;DHT22;41082;52.822;6.666;2023-03-14T13:20:44;8.40;94.70
55211;DHT22;41082;52.822;6.666;2023-03-14T13:23:25;8.50;95.80
55211;DHT22;41082;52.822;6.666;2023-03-14T13:25:51;8.50;95.50
55211;DHT22;41082;52.822;6.666;2023-03-14T13:28:17;8.50;96.50
55211;DHT22;41082;52.822;6.666;2023-03-14T13:30:45;8.60;96.80
55211;DHT22;41082;52.822;6.666;2023-03-14T13:33:17;8.60;92.90
55211;DHT22;41082;52.822;6.666;2023-03-14T13:35:46;8.70;91.50
55211;DHT22;41082;52.822;6.666;2023-03-14T13:38:20;8.70;91.80
55211;DHT22;41082;52.822;6.666;2023-03-14T13:40:47;8.80;92.30
55211;DHT22;41082;52.822;6.666;2023-03-14T13:43:16;8.70;92.40
55211;DHT22;41082;52.822;6.666;2023-03-14T13:45:52;8.70;92.90
55211;DHT22;41082;52.822;6.666;2023-03-14T13:48:19;8.70;92.30
55211;DHT22;41082;52.822;6.666;2023-03-14T13:50:50;8.60;91.40
55211;DHT22;41082;52.822;6.666;2023-03-14T13:53:16;8.60;91.40
55211;DHT22;41082;52.822;6.666;2023-03-14T13:55:43;8.50;90.80
55211;DHT22;41082;52.822;6.666;2023-03-14T13:58:20;8.40;90.30
55211;DHT22;41082;52.822;6.666;2023-03-14T14:01:13;8.40;89.00
55211;DHT22;41082;52.822;6.666;2023-03-14T14:03:41;8.40;86.30
55211;DHT22;41082;52.822;6.666;2023-03-14T14:06:21;8.30;88.20
55211;DHT22;41082;52.822;6.666;2023-03-14T14:08:48;8.30;85.40
55211;DHT22;41082;52.822;6.666;2023-03-14T14:11:31;8.20;86.30
55211;DHT22;41082;52.822;6.666;2023-03-14T14:13:58;8.10;86.20
55211;DHT22;41082;52.822;6.666;2023-03-14T14:16:25;8.00;86.80
55211;DHT22;41082;52.822;6.666;2023-03-14T14:18:55;8.00;88.10
55211;DHT22;41082;52.822;6.666;2023-03-14T14:21:21;7.90;88.30
55211;DHT22;41082;52.822;6.666;2023-03-14T14:23:48;8.00;88.80
55211;DHT22;41082;52.822;6.666;2023-03-14T14:26:18;8.00;90.20
55211;DHT22;41082;52.822;6.666;2023-03-14T14:28:45;8.10;90.40
55211;DHT22;41082;52.822;6.666;2023-03-14T14:33:41;8.20;90.50
55211;DHT22;41082;52.822;6.666;2023-03-14T14:36:18;8.30;89.40
55211;DHT22;41082;52.822;6.666;2023-03-14T14:39:04;8.40;90.40
55211;DHT22;41082;52.822;6.666;2023-03-14T14:41:33;8.50;90.70
55211;DHT22;41082;52.822;6.666;2023-03-14T14:44:03;8.40;90.30
55211;DHT22;41082;52.822;6.666;2023-03-14T14:46:31;8.50;88.80
55211;DHT22;41082;52.822;6.666;2023-03-14T14:49:14;8.30;89.70
55211;DHT22;41082;52.822;6.666;2023-03-14T14:51:47;8.30;90.40
55211;DHT22;41082;52.822;6.666;2023-03-14T14:54:18;8.20;91.10
55211;DHT22;41082;52.822;6.666;2023-03-14T14:56:49;8.10;90.00
55211;DHT22;41082;52.822;6.666;2023-03-14T14:59:24;8.00;90.00
55211;DHT22;41082;52.822;6.666;2023-03-14T15:01:50;7.90;88.40
55211;DHT22;41082;52.822;6.666;2023-03-14T15:04:20;7.90;88.00
55211;DHT22;41082;52.822;6.666;2023-03-14T15:06:47;7.80;87.70
55211;DHT22;41082;52.822;6.666;2023-03-14T15:09:14;7.80;89.10
55211;DHT22;41082;52.822;6.666;2023-03-14T15:11:42;7.80;90.10
55211;DHT22;41082;52.822;6.666;2023-03-14T15:14:07;7.70;90.10
55211;DHT22;41082;52.822;6.666;2023-03-14T15:16:33;7.70;90.20
55211;DHT22;41082;52.822;6.666;2023-03-14T15:19:02;7.60;90.60
55211;DHT22;41082;52.822;6.666;2023-03-14T15:21:31;7.50;90.90
55211;DHT22;41082;52.822;6.666;2023-03-14T15:23:56;7.50;91.30
55211;DHT22;41082;52.822;6.666;2023-03-14T15:26:25;7.50;91.50
55211;DHT22;41082;52.822;6.666;2023-03-14T15:28:51;7.50;91.90
55211;DHT22;41082;52.822;6.666;2023-03-14T15:31:18;7.60;92.30
55211;DHT22;41082;52.822;6.666;2023-03-14T15:33:45;7.70;90.60
55211;DHT22;41082;52.822;6.666;2023-03-14T15:38:48;7.70;86.60
55211;DHT22;41082;52.822;6.666;2023-03-14T15:41:14;7.60;86.10
55211;DHT22;41082;52.822;6.666;2023-03-14T15:43:41;7.50;88.30
55211;DHT22;41082;52.822;6.666;2023-03-14T15:46:09;7.40;87.90
55211;DHT22;41082;52.822;6.666;2023-03-14T15:48:35;7.30;89.30
55211;DHT22;41082;52.822;6.666;2023-03-14T15:51:01;7.30;88.60
55211;DHT22;41082;52.822;6.666;2023-03-14T15:53:26;7.20;88.90
55211;DHT22;41082;52.822;6.666;2023-03-14T15:55:52;7.20;90.00
55211;DHT22;41082;52.822;6.666;2023-03-14T15:58:18;7.20;91.20
55211;DHT22;41082;52.822;6.666;2023-03-14T16:00:44;7.10;92.20
55211;DHT22;41082;52.822;6.666;2023-03-14T16:03:10;7.00;92.50
55211;DHT22;41082;52.822;6.666;2023-03-14T16:05:39;7.00;93.10
55211;DHT22;41082;52.822;6.666;2023-03-14T16:08:05;6.90;94.00
55211;DHT22;41082;52.822;6.666;2023-03-14T16:10:31;6.80;94.10
55211;DHT22;41082;52.822;6.666;2023-03-14T16:12:57;6.80;95.20
55211;DHT22;41082;52.822;6.666;2023-03-14T16:15:23;6.70;95.70
55211;DHT22;41082;52.822;6.666;2023-03-14T16:17:54;6.70;96.10
55211;DHT22;41082;52.822;6.666;2023-03-14T16:20:21;6.60;96.10
55211;DHT22;41082;52.822;6.666;2023-03-14T16:22:47;6.60;97.10
55211;DHT22;41082;52.822;6.666;2023-03-14T16:25:13;6.60;96.80
55211;DHT22;41082;52.822;6.666;2023-03-14T16:27:38;6.50;97.10
55211;DHT22;41082;52.822;6.666;2023-03-14T16:30:05;6.50;97.10
55211;DHT22;41082;52.822;6.666;2023-03-14T16:32:31;6.50;96.80
55211;DHT22;41082;52.822;6.666;2023-03-14T16:34:57;6.40;97.50
55211;DHT22;41082;52.822;6.666;2023-03-14T16:37:24;6.40;97.90
55211;DHT22;41082;52.822;6.666;2023-03-14T16:39:51;6.40;97.80
55211;DHT22;41082;52.822;6.666;2023-03-14T16:42:17;6.30;98.90
55211;DHT22;41082;52.822;6.666;2023-03-14T16:44:43;6.20;99.90
55211;DHT22;41082;52.822;6.666;2023-03-14T16:47:08;6.00;99.90
55211;DHT22;41082;52.822;6.666;2023-03-14T16:49:34;5.90;99.90
55211;DHT22;41082;52.822;6.666;2023-03-14T16:52:00;5.90;99.90
55211;DHT22;41082;52.822;6.666;2023-03-14T16:54:26;5.80;99.90